createdAt,value
2019-06-26T00:00:52.149Z,23.60
2019-06-26T00:03:20.596Z,22.90
2019-06-26T00:05:48.510Z,21.40
2019-06-26T00:08:18.970Z,21.97
2019-06-26T00:10:48.132Z,23.60
2019-06-26T00:13:25.827Z,22.33
2019-06-26T00:15:45.626Z,24.53
2019-06-26T00:18:13.454Z,23.80
2019-06-26T00:20:41.764Z,24.07
2019-06-26T00:23:11.357Z,22.10
2019-06-26T00:25:39.237Z,22.40
2019-06-26T00:28:07.146Z,27.50
2019-06-26T00:30:35.011Z,26.00
2019-06-26T00:33:02.937Z,23.77
2019-06-26T00:35:30.850Z,23.40
2019-06-26T00:38:00.223Z,23.33
2019-06-26T00:40:28.145Z,23.73
2019-06-26T00:42:56.054Z,23.57
2019-06-26T00:45:44.239Z,23.03
2019-06-26T00:48:12.139Z,25.63
2019-06-26T00:50:40.023Z,23.90
2019-06-26T00:53:09.396Z,26.33
2019-06-26T00:55:37.278Z,25.63
2019-06-26T00:58:06.231Z,22.67
2019-06-26T01:00:38.662Z,24.30
2019-06-26T01:03:06.507Z,23.97
2019-06-26T01:05:34.457Z,24.03
2019-06-26T01:08:02.342Z,24.30
2019-06-26T01:10:30.241Z,25.23
2019-06-26T01:12:58.140Z,25.60
2019-06-26T01:15:27.514Z,25.03
2019-06-26T01:17:55.445Z,23.90
2019-06-26T01:20:40.469Z,25.60
2019-06-26T01:23:08.338Z,25.30
2019-06-26T01:25:36.220Z,27.63
2019-06-26T01:28:04.035Z,27.47
2019-06-26T01:30:33.975Z,26.40
2019-06-26T01:33:01.879Z,26.10
2019-06-26T01:35:29.889Z,25.10
2019-06-26T01:37:57.798Z,28.27
2019-06-26T01:40:25.703Z,25.27
2019-06-26T01:42:53.616Z,25.90
2019-06-26T01:45:55.719Z,25.70
2019-06-26T01:48:27.667Z,27.07
2019-06-26T01:50:55.611Z,27.90
2019-06-26T01:53:24.518Z,27.90
2019-06-26T01:55:52.414Z,26.90
2019-06-26T01:58:20.287Z,27.23
2019-06-26T02:00:48.108Z,30.90
2019-06-26T02:03:16.073Z,28.17
2019-06-26T02:05:43.920Z,28.73
2019-06-26T02:08:13.246Z,29.43
2019-06-26T02:10:42.942Z,28.97
2019-06-26T02:13:12.709Z,30.80
2019-06-26T02:15:40.524Z,28.50
2019-06-26T02:18:28.337Z,30.23
2019-06-26T02:20:56.221Z,29.73
2019-06-26T02:23:27.072Z,26.60
2019-06-26T02:25:54.968Z,28.30
2019-06-26T02:28:24.060Z,27.87
2019-06-26T02:30:52.002Z,26.83
2019-06-26T02:33:19.930Z,28.83
2019-06-26T02:35:49.274Z,31.83
2019-06-26T02:38:17.198Z,30.23
2019-06-26T02:40:45.147Z,30.30
2019-06-26T02:43:13.030Z,27.47
2019-06-26T02:45:41.001Z,31.60
2019-06-26T02:48:08.971Z,27.40
2019-06-26T02:50:39.333Z,30.80
2019-06-26T02:53:07.203Z,31.30
2019-06-26T02:55:36.564Z,30.30
2019-06-26T02:58:04.407Z,29.97
2019-06-26T03:00:32.335Z,30.13
2019-06-26T03:03:00.231Z,29.73
2019-06-26T03:05:28.689Z,28.70
2019-06-26T03:07:57.193Z,28.37
2019-06-26T03:10:25.058Z,29.20
2019-06-26T03:12:53.545Z,31.70
2019-06-26T03:15:22.525Z,28.57
2019-06-26T03:17:55.513Z,30.40
2019-06-26T03:20:24.226Z,29.67
2019-06-26T03:22:52.054Z,29.77
2019-06-26T03:25:20.890Z,30.20
2019-06-26T03:27:48.803Z,30.63
2019-06-26T03:30:18.996Z,31.47
2019-06-26T03:32:46.899Z,32.07
2019-06-26T03:35:14.849Z,31.83
2019-06-26T03:37:42.730Z,31.90
2019-06-26T03:40:10.839Z,36.50
2019-06-26T03:42:39.089Z,33.03
2019-06-26T03:45:24.126Z,33.90
2019-06-26T03:47:39.619Z,33.80
2019-06-26T03:50:07.498Z,30.97
2019-06-26T03:52:35.333Z,32.30
2019-06-26T03:55:03.443Z,33.83
2019-06-26T03:57:31.382Z,31.60
2019-06-26T04:00:02.006Z,32.10
2019-06-26T04:02:30.068Z,31.77
2019-06-26T04:04:58.033Z,34.43
2019-06-26T04:07:25.963Z,33.47
2019-06-26T04:09:53.906Z,33.80
2019-06-26T04:12:21.795Z,30.70
2019-06-26T04:14:49.709Z,34.57
2019-06-26T04:17:17.611Z,32.57
2019-06-26T04:19:48.909Z,31.80
2019-06-26T04:22:16.792Z,30.33
2019-06-26T04:24:44.652Z,32.60
2019-06-26T04:27:12.631Z,33.90
2019-06-26T04:29:40.749Z,34.67
2019-06-26T04:32:10.114Z,35.07
2019-06-26T04:34:38.005Z,36.60
2019-06-26T04:37:05.893Z,36.30
2019-06-26T04:39:33.728Z,36.27
2019-06-26T04:42:01.634Z,33.67
2019-06-26T04:44:29.510Z,38.47
2019-06-26T04:47:03.646Z,37.93
2019-06-26T04:49:33.575Z,40.20
2019-06-26T04:52:01.476Z,40.50
2019-06-26T04:54:29.409Z,41.07
2019-06-26T04:56:57.294Z,38.27
2019-06-26T04:59:25.222Z,38.57
2019-06-26T05:01:53.122Z,37.10
2019-06-26T05:04:21.045Z,42.83
2019-06-26T05:06:49.426Z,39.30
2019-06-26T05:09:17.743Z,40.90
2019-06-26T05:11:45.697Z,38.90
2019-06-26T05:14:13.581Z,37.47
2019-06-26T05:16:41.502Z,38.80
2019-06-26T05:19:09.354Z,40.40
2019-06-26T05:21:37.227Z,41.00
2019-06-26T05:24:05.062Z,42.27
2019-06-26T05:26:32.858Z,41.70
2019-06-26T05:29:00.727Z,38.70
2019-06-26T05:31:28.534Z,40.63
2019-06-26T05:33:56.381Z,42.00
2019-06-26T05:36:24.210Z,39.30
2019-06-26T05:38:52.027Z,41.10
2019-06-26T05:41:19.986Z,38.30
2019-06-26T05:43:47.881Z,39.20
2019-06-26T05:46:30.043Z,42.77
2019-06-26T05:48:45.278Z,43.60
2019-06-26T05:51:13.081Z,46.30
2019-06-26T05:53:40.953Z,40.50
2019-06-26T05:56:08.781Z,45.40
2019-06-26T05:58:36.617Z,44.30
2019-06-26T06:01:04.422Z,44.37
2019-06-26T06:03:32.254Z,43.30
2019-06-26T06:06:00.058Z,44.57
2019-06-26T06:08:27.898Z,43.27
2019-06-26T06:10:58.168Z,43.70
2019-06-26T06:13:25.278Z,39.37
2019-06-26T06:15:53.144Z,42.10
2019-06-26T06:18:21.061Z,41.30
2019-06-26T06:20:49.242Z,42.83
2019-06-26T06:23:17.061Z,44.00
2019-06-26T06:25:44.934Z,45.53
2019-06-26T06:28:12.804Z,39.57
2019-06-26T06:30:40.760Z,38.90
2019-06-26T06:33:08.619Z,42.43
2019-06-26T06:35:36.508Z,39.70
2019-06-26T06:38:04.373Z,37.70
2019-06-26T06:40:32.199Z,37.20
2019-06-26T06:43:00.198Z,39.67
2019-06-26T06:45:28.569Z,40.40
2019-06-26T06:47:56.447Z,39.07
2019-06-26T06:50:24.449Z,36.70
2019-06-26T06:52:52.769Z,38.87
2019-06-26T06:55:20.660Z,38.97
2019-06-26T06:57:48.522Z,35.40
2019-06-26T07:00:16.873Z,38.70
2019-06-26T07:02:44.729Z,38.40
2019-06-26T07:05:12.698Z,37.43
2019-06-26T07:07:40.528Z,33.90
2019-06-26T07:10:08.463Z,34.20
2019-06-26T07:12:36.424Z,33.43
2019-06-26T07:15:05.186Z,39.40
2019-06-26T07:17:33.028Z,33.57
2019-06-26T07:20:00.887Z,34.97
2019-06-26T07:22:28.781Z,32.37
2019-06-26T07:24:56.674Z,34.13
2019-06-26T07:27:24.550Z,32.60
2019-06-26T07:29:52.431Z,34.03
2019-06-26T07:32:20.270Z,34.40
2019-06-26T07:34:48.139Z,35.00
2019-06-26T07:37:16.010Z,35.80
2019-06-26T07:39:43.854Z,37.63
2019-06-26T07:42:11.768Z,35.80
2019-06-26T07:44:39.615Z,36.10
2019-06-26T07:47:21.733Z,35.33
2019-06-26T07:49:37.115Z,35.10
2019-06-26T07:52:05.025Z,36.00
2019-06-26T07:54:32.850Z,37.03
2019-06-26T07:57:00.762Z,38.93
2019-06-26T07:59:28.582Z,36.90
2019-06-26T08:01:56.445Z,36.77
2019-06-26T08:04:24.289Z,36.10
2019-06-26T08:06:52.154Z,33.70
2019-06-26T08:09:20.038Z,33.50
2019-06-26T08:11:47.950Z,35.10
2019-06-26T08:14:15.785Z,34.07
2019-06-26T08:16:43.651Z,33.73
2019-06-26T08:19:11.470Z,35.63
2019-06-26T08:21:39.338Z,33.77
2019-06-26T08:24:07.242Z,32.63
2019-06-26T08:26:35.148Z,30.40
2019-06-26T08:29:03.034Z,29.90
2019-06-26T08:31:30.857Z,29.93
2019-06-26T08:33:58.690Z,26.30
2019-06-26T08:36:26.572Z,27.50
2019-06-26T08:38:54.427Z,27.50
2019-06-26T08:41:22.249Z,30.47
2019-06-26T08:43:50.208Z,30.70
2019-06-26T08:46:18.027Z,25.50
2019-06-26T08:48:45.899Z,27.47
2019-06-26T08:51:13.710Z,27.37
2019-06-26T08:53:41.561Z,24.93
2019-06-26T08:56:09.511Z,26.37
2019-06-26T08:58:37.325Z,29.10
2019-06-26T09:01:05.173Z,29.20
2019-06-26T09:03:33.012Z,26.50
2019-06-26T09:06:00.831Z,26.67
2019-06-26T09:08:28.791Z,27.17
2019-06-26T09:10:56.763Z,26.10
2019-06-26T09:13:24.689Z,27.80
2019-06-26T09:15:52.520Z,26.17
2019-06-26T09:18:34.314Z,25.80
2019-06-26T09:20:49.901Z,25.40
2019-06-26T09:23:18.834Z,24.27
2019-06-26T09:25:46.659Z,23.83
2019-06-26T09:28:14.524Z,24.20
2019-06-26T09:30:42.459Z,26.67
2019-06-26T09:33:10.302Z,23.77
2019-06-26T09:35:38.328Z,24.53
2019-06-26T09:38:06.286Z,23.80
2019-06-26T09:40:34.167Z,26.30
2019-06-26T09:43:01.999Z,24.67
2019-06-26T09:45:29.850Z,22.47
2019-06-26T09:47:57.708Z,23.10
2019-06-26T09:50:25.569Z,23.23
2019-06-26T09:52:53.389Z,28.20
2019-06-26T09:55:21.314Z,22.70
2019-06-26T09:57:49.210Z,22.87
2019-06-26T10:00:17.167Z,23.30
2019-06-26T10:02:44.965Z,23.53
2019-06-26T10:05:12.797Z,23.13
2019-06-26T10:07:40.630Z,25.47
2019-06-26T10:10:08.982Z,23.87
2019-06-26T10:12:36.794Z,24.93
2019-06-26T10:15:05.234Z,24.03
2019-06-26T10:17:33.106Z,22.33
2019-06-26T10:20:00.940Z,30.13
2019-06-26T10:22:28.808Z,22.77
2019-06-26T10:24:56.694Z,22.10
2019-06-26T10:27:24.614Z,21.80
2019-06-26T10:29:52.458Z,21.37
2019-06-26T10:32:20.358Z,21.40
2019-06-26T10:34:48.218Z,22.00
2019-06-26T10:37:16.092Z,24.30
2019-06-26T10:39:43.946Z,22.83
2019-06-26T10:42:11.831Z,21.67
2019-06-26T10:44:39.666Z,22.67
2019-06-26T10:47:07.534Z,22.30
2019-06-26T10:49:35.377Z,21.37
2019-06-26T10:52:03.245Z,23.10
2019-06-26T10:54:31.255Z,22.53
2019-06-26T10:56:59.654Z,21.40
2019-06-26T10:59:27.582Z,22.10
2019-06-26T11:01:55.430Z,23.80
2019-06-26T11:04:23.435Z,22.47
2019-06-26T11:06:51.302Z,22.93
2019-06-26T11:09:19.153Z,20.80
2019-06-26T11:11:47.045Z,25.33
2019-06-26T11:14:14.877Z,24.60
2019-06-26T11:16:42.821Z,21.93
2019-06-26T11:19:10.741Z,24.33
2019-06-26T11:21:38.546Z,23.27
2019-06-26T11:24:06.461Z,23.13
2019-06-26T11:26:34.357Z,24.53
2019-06-26T11:29:02.365Z,23.10
2019-06-26T11:31:30.221Z,26.03
2019-06-26T11:33:58.119Z,23.97
2019-06-26T11:36:25.957Z,27.20
2019-06-26T11:38:53.796Z,30.50
2019-06-26T11:41:21.642Z,33.07
2019-06-26T11:43:49.554Z,28.77
2019-06-26T11:46:17.373Z,29.53
2019-06-26T11:48:45.227Z,29.30
2019-06-26T11:51:13.048Z,27.20
2019-06-26T11:53:40.928Z,25.50
2019-06-26T11:56:08.970Z,26.00
2019-06-26T11:58:36.872Z,27.33
2019-06-26T12:01:04.710Z,31.60
2019-06-26T12:03:32.584Z,27.60
2019-06-26T12:06:12.259Z,31.27
2019-06-26T12:08:30.034Z,29.57
2019-06-26T12:10:57.876Z,34.07
2019-06-26T12:13:25.711Z,30.57
2019-06-26T12:15:53.646Z,31.67
2019-06-26T12:18:21.446Z,31.00
2019-06-26T12:20:49.302Z,32.80
2019-06-26T12:23:17.253Z,33.17
2019-06-26T12:25:45.157Z,34.50
2019-06-26T12:28:12.986Z,34.77
2019-06-26T12:30:40.908Z,32.10
2019-06-26T12:33:08.807Z,34.00
2019-06-26T12:35:36.821Z,34.93
2019-06-26T12:38:04.648Z,32.87
2019-06-26T12:40:32.506Z,31.63
2019-06-26T12:43:00.351Z,31.30
2019-06-26T12:45:28.215Z,29.70
2019-06-26T12:47:56.050Z,32.93
2019-06-26T12:50:34.837Z,29.50
2019-06-26T12:52:53.765Z,29.87
2019-06-26T12:55:21.945Z,27.40
2019-06-26T12:57:49.754Z,27.73
2019-06-26T13:00:17.700Z,27.70
2019-06-26T13:02:45.519Z,27.70
2019-06-26T13:05:13.499Z,27.20
2019-06-26T13:07:41.346Z,27.40
2019-06-26T13:10:10.809Z,29.40
2019-06-26T13:12:38.599Z,27.77
2019-06-26T13:15:06.859Z,26.90
2019-06-26T13:17:34.837Z,27.60
2019-06-26T13:20:02.693Z,27.73
2019-06-26T13:22:30.532Z,29.77
2019-06-26T13:24:58.350Z,33.73
2019-06-26T13:27:26.203Z,29.73
2019-06-26T13:29:54.233Z,29.50
2019-06-26T13:32:22.434Z,27.83
2019-06-26T13:34:50.468Z,28.57
2019-06-26T13:37:18.485Z,28.50
2019-06-26T13:39:46.305Z,28.60
2019-06-26T13:42:14.189Z,28.20
2019-06-26T13:44:42.080Z,28.80
2019-06-26T13:47:09.946Z,25.97
2019-06-26T13:49:37.778Z,31.23
2019-06-26T13:52:05.642Z,29.27
2019-06-26T13:54:33.498Z,29.30
2019-06-26T13:57:01.533Z,27.90
2019-06-26T13:59:29.398Z,28.93
2019-06-26T14:01:57.255Z,30.37
2019-06-26T14:04:25.258Z,29.10
2019-06-26T14:06:53.143Z,26.20
2019-06-26T14:09:20.955Z,27.30
2019-06-26T14:11:48.853Z,29.00
2019-06-26T14:14:16.669Z,29.03
2019-06-26T14:16:45.099Z,28.43
2019-06-26T14:19:12.929Z,27.93
2019-06-26T14:21:40.796Z,30.17
2019-06-26T14:24:08.641Z,26.93
2019-06-26T14:26:36.497Z,27.60
2019-06-26T14:29:17.009Z,27.03
2019-06-26T14:31:33.926Z,25.80
2019-06-26T14:34:01.772Z,25.67
2019-06-26T14:36:29.621Z,27.00
2019-06-26T14:38:57.476Z,25.10
2019-06-26T14:41:25.290Z,26.07
2019-06-26T14:43:53.163Z,26.07
2019-06-26T14:46:20.995Z,26.10
2019-06-26T14:48:48.862Z,24.20
2019-06-26T14:51:16.744Z,25.20
2019-06-26T14:53:44.711Z,24.67
2019-06-26T14:56:12.614Z,29.07
2019-06-26T14:58:40.479Z,24.97
2019-06-26T15:01:08.355Z,25.03
2019-06-26T15:03:36.194Z,22.67
2019-06-26T15:06:15.978Z,23.93
2019-06-26T15:08:33.634Z,23.93
2019-06-26T15:11:01.446Z,23.27
2019-06-26T15:13:29.492Z,23.10
2019-06-26T15:15:57.306Z,22.80
2019-06-26T15:18:25.146Z,24.20
2019-06-26T15:20:52.989Z,22.40
2019-06-26T15:23:20.825Z,22.07
2019-06-26T15:25:48.667Z,26.17
2019-06-26T15:28:16.540Z,23.63
2019-06-26T15:30:44.430Z,25.67
2019-06-26T15:33:12.286Z,24.23
2019-06-26T15:35:40.107Z,23.80
2019-06-26T15:38:07.979Z,22.10
2019-06-26T15:40:35.832Z,22.60
2019-06-26T15:43:03.682Z,26.00
2019-06-26T15:45:31.646Z,22.20
2019-06-26T15:47:59.490Z,24.37
2019-06-26T15:50:27.321Z,23.87
2019-06-26T15:52:55.130Z,25.33
2019-06-26T15:55:22.991Z,24.80
2019-06-26T15:57:50.842Z,24.40
2019-06-26T16:00:18.743Z,24.43
2019-06-26T16:02:46.568Z,24.70
2019-06-26T16:05:14.717Z,22.83
2019-06-26T16:07:42.558Z,22.20
2019-06-26T16:10:10.407Z,24.13
2019-06-26T16:12:38.221Z,26.67
2019-06-26T16:15:06.511Z,25.57
2019-06-26T16:17:56.200Z,24.43
2019-06-26T16:20:24.086Z,25.13
2019-06-26T16:22:51.957Z,26.50
2019-06-26T16:25:23.534Z,24.20
2019-06-26T16:28:04.716Z,25.77
2019-06-26T16:30:24.171Z,23.73
2019-06-26T16:32:56.873Z,24.30
2019-06-26T16:35:25.744Z,26.80
2019-06-26T16:37:55.432Z,23.30
2019-06-26T16:40:25.168Z,25.33
2019-06-26T16:42:53.084Z,28.20
2019-06-26T16:45:21.010Z,23.50
2019-06-26T16:47:48.873Z,26.40
2019-06-26T16:50:21.790Z,26.00
2019-06-26T16:52:51.059Z,24.00
2019-06-26T16:55:19.259Z,27.67
2019-06-26T16:57:47.151Z,25.33
2019-06-26T17:00:21.959Z,25.97
2019-06-26T17:02:51.434Z,24.13
2019-06-26T17:05:19.406Z,23.43
2019-06-26T17:07:47.298Z,25.60
2019-06-26T17:10:15.209Z,26.23
2019-06-26T17:12:43.398Z,23.50
2019-06-26T17:15:13.450Z,22.57
2019-06-26T17:17:42.900Z,25.20
2019-06-26T17:20:11.082Z,23.97
2019-06-26T17:22:40.354Z,24.40
2019-06-26T17:25:08.251Z,24.27
2019-06-26T17:27:36.221Z,27.00
2019-06-26T17:30:05.085Z,28.30
2019-06-26T17:32:35.108Z,34.10
2019-06-26T17:35:05.192Z,27.60
2019-06-26T17:37:33.100Z,26.30
2019-06-26T17:40:05.909Z,26.03
2019-06-26T17:42:34.031Z,26.80
2019-06-26T17:45:01.894Z,26.77
2019-06-26T17:47:29.796Z,24.50
2019-06-26T17:49:58.739Z,25.40
2019-06-26T17:52:28.481Z,26.43
2019-06-26T17:54:56.365Z,24.50
2019-06-26T17:57:24.286Z,23.77
2019-06-26T17:59:52.249Z,27.10
2019-06-26T18:02:20.184Z,24.70
2019-06-26T18:04:50.549Z,25.73
2019-06-26T18:07:18.428Z,24.10
2019-06-26T18:09:46.303Z,26.60
2019-06-26T18:12:14.246Z,24.57
2019-06-26T18:14:43.282Z,23.50
2019-06-26T18:17:21.484Z,25.40
2019-06-26T18:19:42.357Z,23.30
2019-06-26T18:22:10.221Z,24.03
2019-06-26T18:24:38.099Z,23.47
2019-06-26T18:27:08.259Z,23.97
2019-06-26T18:29:36.846Z,24.10
2019-06-26T18:32:04.750Z,22.67
2019-06-26T18:34:32.626Z,22.83
2019-06-26T18:37:03.944Z,23.17
2019-06-26T18:39:31.852Z,21.00
2019-06-26T18:42:01.986Z,23.10
2019-06-26T18:44:30.264Z,23.40
2019-06-26T18:46:58.143Z,23.37
2019-06-26T18:49:26.052Z,22.70
2019-06-26T18:51:53.920Z,23.70
2019-06-26T18:54:21.786Z,22.80
2019-06-26T18:56:49.726Z,21.00
2019-06-26T18:59:17.664Z,20.70
2019-06-26T19:01:45.521Z,21.17
2019-06-26T19:04:13.406Z,20.93
2019-06-26T19:06:41.241Z,20.77
2019-06-26T19:09:09.138Z,21.60
2019-06-26T19:11:37.002Z,21.10
2019-06-26T19:14:06.021Z,21.40
2019-06-26T19:16:36.291Z,21.23
2019-06-26T19:19:04.539Z,20.10
2019-06-26T19:21:32.401Z,22.60
2019-06-26T19:24:09.700Z,20.73
2019-06-26T19:26:29.854Z,20.30
2019-06-26T19:28:57.929Z,22.27
2019-06-26T19:31:25.849Z,22.70
2019-06-26T19:33:53.783Z,25.27
2019-06-26T19:36:24.176Z,21.20
2019-06-26T19:38:51.336Z,21.20
2019-06-26T19:41:19.195Z,21.00
2019-06-26T19:43:47.053Z,20.70
2019-06-26T19:46:14.934Z,20.03
2019-06-26T19:48:42.772Z,21.57
2019-06-26T19:51:10.698Z,22.20
2019-06-26T19:53:38.555Z,23.20
2019-06-26T19:56:06.493Z,21.20
2019-06-26T19:58:34.782Z,21.57
2019-06-26T20:01:02.705Z,21.70
2019-06-26T20:03:30.586Z,20.70
2019-06-26T20:05:58.503Z,19.90
2019-06-26T20:08:27.476Z,21.33
2019-06-26T20:10:55.400Z,23.17
2019-06-26T20:13:23.347Z,21.13
2019-06-26T20:15:52.309Z,21.60
2019-06-26T20:18:20.435Z,22.73
2019-06-26T20:20:48.349Z,20.30
2019-06-26T20:23:16.222Z,22.20
2019-06-26T20:25:44.118Z,20.63
2019-06-26T20:28:12.011Z,21.90
2019-06-26T20:30:39.927Z,21.63
2019-06-26T20:33:07.864Z,22.30
2019-06-26T20:35:38.717Z,21.43
2019-06-26T20:38:05.418Z,22.03
2019-06-26T20:40:33.398Z,23.07
2019-06-26T20:43:01.270Z,19.60
2019-06-26T20:45:29.170Z,21.77
2019-06-26T20:47:57.483Z,20.87
2019-06-26T20:50:25.307Z,20.60
2019-06-26T20:52:55.857Z,20.23
2019-06-26T20:55:23.779Z,19.87
2019-06-26T20:57:52.523Z,21.53
2019-06-26T21:00:22.789Z,20.40
2019-06-26T21:02:53.995Z,19.67
2019-06-26T21:05:20.543Z,20.47
2019-06-26T21:07:48.412Z,19.30
2019-06-26T21:10:16.385Z,19.23
2019-06-26T21:12:46.648Z,23.67
2019-06-26T21:15:15.796Z,19.40
2019-06-26T21:17:43.669Z,19.07
2019-06-26T21:20:13.653Z,21.10
2019-06-26T21:22:43.389Z,20.73
2019-06-26T21:25:18.941Z,20.07
2019-06-26T21:27:40.946Z,19.37
2019-06-26T21:30:09.310Z,19.10
2019-06-26T21:32:37.329Z,19.70
2019-06-26T21:35:05.459Z,18.37
2019-06-26T21:37:33.330Z,21.70
2019-06-26T21:40:01.423Z,19.30
2019-06-26T21:42:29.319Z,19.80
2019-06-26T21:44:57.177Z,18.77
2019-06-26T21:47:25.047Z,19.67
2019-06-26T21:49:52.884Z,19.87
2019-06-26T21:52:20.749Z,18.50
2019-06-26T21:54:48.679Z,21.33
2019-06-26T21:57:16.566Z,21.40
2019-06-26T21:59:44.451Z,18.87
2019-06-26T22:02:12.399Z,19.30
2019-06-26T22:04:40.308Z,21.30
2019-06-26T22:07:08.186Z,21.07
2019-06-26T22:09:36.049Z,20.60
2019-06-26T22:12:04.107Z,19.00
2019-06-26T22:14:31.945Z,19.57
2019-06-26T22:16:59.805Z,18.43
2019-06-26T22:19:27.658Z,21.50
2019-06-26T22:21:55.504Z,21.03
2019-06-26T22:24:23.373Z,18.40
2019-06-26T22:26:52.313Z,20.20
2019-06-26T22:29:21.667Z,19.50
2019-06-26T22:31:49.482Z,18.93
2019-06-26T22:34:17.338Z,19.53
2019-06-26T22:36:51.805Z,20.27
2019-06-26T22:39:14.746Z,20.73
2019-06-26T22:41:42.597Z,24.07
2019-06-26T22:44:10.466Z,20.50
2019-06-26T22:46:38.297Z,20.20
2019-06-26T22:49:06.192Z,21.57
2019-06-26T22:51:34.016Z,19.67
2019-06-26T22:54:01.888Z,19.45
2019-06-26T22:56:29.758Z,21.20
2019-06-26T22:58:57.635Z,19.98
2019-06-26T23:01:25.509Z,23.22
2019-06-26T23:03:53.487Z,20.52
2019-06-26T23:06:21.340Z,23.67
2019-06-26T23:08:51.523Z,20.07
2019-06-26T23:11:19.356Z,19.30
2019-06-26T23:13:47.223Z,21.60
2019-06-26T23:16:15.081Z,21.53
2019-06-26T23:18:42.950Z,23.80
2019-06-26T23:21:10.795Z,20.80
2019-06-26T23:23:38.690Z,22.07
2019-06-26T23:26:23.057Z,22.67
2019-06-26T23:28:37.946Z,19.60
2019-06-26T23:31:05.902Z,20.15
2019-06-26T23:33:33.747Z,20.70
2019-06-26T23:36:01.699Z,21.65
2019-06-26T23:38:29.544Z,22.25
2019-06-26T23:40:57.439Z,22.07
2019-06-26T23:43:25.291Z,21.42
2019-06-26T23:45:53.260Z,20.43
2019-06-26T23:48:21.109Z,21.42
2019-06-26T23:50:48.975Z,21.33
2019-06-26T23:53:16.851Z,22.95
2019-06-26T23:55:44.735Z,22.27
2019-06-26T23:58:12.624Z,24.15
